Terminal Aerodrome Forecast
Issued by NWS

Home | Current Version | Previous Version | Text Only | Print | Product List | Glossary On
Versions: 1 2 3 4 5 6 7 8 9 10 11 12 13 14 15 16 17 18
882
FTUS46 KLOX 292328
TAFPMD
TAF
KPMD 292328Z 3000/3024 24017G25KT P6SM SCT200
     FM300200 24012KT P6SM SCT200
     FM300700 21007KT P6SM SCT200
     FM301500 VRB03KT P6SM SCT200
     FM302100 24017G25KT P6SM SCT200=

USA.gov is the U.S. government's official web portal to all federal, state and local government web resources and services.